Flight Track Log - Related Links

Times and Time Zones

All times are in EDT time to prevent confusion due to time zone crossing. See the DAL107 flight status page for this flight to view local times or setup timezone preferences in your user account.

Time Position Orientation Groundspeed Altitude Reporting Facility
EDT Latitude Longitude Course Direction KTS MPH feet Rate Location/Type
Fri 11:25:15 AM 48.1920 -48.6083 257° West  Level FlightAware Approximate
Fri 11:26:15 AM 48.1623 -48.7872 257° West  Level FlightAware Approximate
Fri 11:27:15 AM 48.1323 -48.9659 257° West  Level FlightAware Approximate
Fri 11:30:11 AM 47.9000 -50.4500 253° West 470 541 35,000  Level Gander Center
Fri 11:31:11 AM 47.8667 -50.6167 255° West 470 541 35,000 350 Level Gander Center
Fri 11:32:11 AM 47.8333 -50.8000 264° West 470 541 35,700 500 Climbing Gander Center
Fri 11:33:11 AM 47.8167 -51.0167 255° West 470 541 36,000 150 Climbing Gander Center
Fri 11:34:11 AM 47.7833 -51.2000 255° West 460 529 36,000  Level Gander Center
Fri 11:35:11 AM 47.7500 -51.3833 248° West 470 541 36,000  Level Gander Center
Fri 11:36:11 AM 47.7000 -51.5667 254° West 470 541 36,000  Level Gander Center
Fri 11:37:11 AM 47.6667 -51.7333 257° West 470 541 36,000  Level Gander Center
Fri 11:38:11 AM 47.6333 -51.9500 255° West 470 541 36,000  Level Gander Center
Fri 11:39:11 AM 47.6000 -52.1333 254° West 470 541 36,000  Level Gander Center
Fri 11:40:11 AM 47.5667 -52.3000 255° West 470 541 36,000  Level Gander Center
Fri 11:41:11 AM 47.5333 -52.4833 255° West 470 541 36,000  Level Gander Center
Fri 11:42:11 AM 47.5000 -52.6667 256° West 470 541 36,000  Level Gander Center
Fri 11:43:10 AM 47.4667 -52.8667 247° West 470 541 36,000  Level Gander Center
Fri 11:44:49 AM 47.3833 -53.1500 255° West 480 552 36,000  Level Gander Center
Fri 11:46:10 AM 47.3333 -53.4167 248° West 480 552 36,000  Level Gander Center
Fri 11:47:11 AM 47.2833 -53.6000 256° West 480 552 36,000  Level Gander Center
Fri 11:48:10 AM 47.2500 -53.8000 246° West 480 552 36,000  Level Gander Center
Fri 11:49:11 AM 47.2000 -53.9667 248° West 480 552 36,000  Level Gander Center
Fri 11:50:11 AM 47.1500 -54.1500 255° West 470 541 36,000  Level Gander Center
Fri 11:51:10 AM 47.1167 -54.3333 248° West 470 541 36,000  Level Gander Center
Fri 11:52:11 AM 47.0667 -54.5167 250° West 470 541 36,000  Level Gander Center
Fri 11:53:11 AM 47.0167 -54.7167 254° West 470 541 36,000  Level Gander Center
Fri 11:54:10 AM 46.9833 -54.8833 248° West 470 541 36,000  Level Gander Center
Fri 11:55:11 AM 46.9333 -55.0667 248° West 470 541 36,000  Level Gander Center
Fri 11:56:10 AM 46.8833 -55.2500 246° West 470 541 36,000  Level Gander Center
Fri 11:57:11 AM 46.8333 -55.4167 255° West 470 541 36,000  Level Gander Center
Fri 11:58:11 AM 46.8000 -55.6000 246° West 480 552 36,000  Level Gander Center
Fri 11:59:11 AM 46.7500 -55.7667 250° West 480 552 36,000  Level Gander Center
Fri 12:00:11 PM 46.7000 -55.9667 255° West 480 552 36,000  Level Gander Center
Fri 12:01:10 PM 46.6667 -56.1500 250° West 480 552 36,000  Level Gander Center
Fri 12:02:10 PM 46.6167 -56.3500 246° West 470 541 36,000  Level Gander Center
Fri 12:03:10 PM 46.5667 -56.5167 244° Southwest 480 552 36,000  Level Gander Center
Fri 12:04:11 PM 46.5167 -56.6667 250° West 480 552 36,000  Level Gander Center
Fri 12:05:10 PM 46.4667 -56.8667 255° West 480 552 36,000  Level Gander Center
Fri 12:06:11 PM 46.4333 -57.0500 240° Southwest 480 552 36,000  Level Gander Center
Fri 12:07:10 PM 46.3667 -57.2167 256° West 480 552 36,000  Level Gander Center
Fri 12:08:11 PM 46.3333 -57.4167 247° West 480 552 36,000  Level Gander Center
Fri 12:09:11 PM 46.2833 -57.5833 249° West 480 552 36,000  Level Gander Center
Fri 12:10:11 PM 46.2333 -57.7667 247° West 480 552 36,000  Level Gander Center
Fri 12:11:10 PM 46.1833 -57.9333 247° West 480 552 36,000  Level Gander Center
Fri 12:12:10 PM 46.1333 -58.1000 250° West 480 552 36,000  Level Gander Center
Fri 12:13:10 PM 46.0833 -58.3000 240° Southwest 480 552 36,000  Level Gander Center
Fri 12:14:10 PM 46.0167 -58.4667 257° West 480 552 36,000  Level Gander Center
Fri 12:15:10 PM 45.9833 -58.6667 247° West 480 552 36,000  Level Gander Center
Fri 12:16:10 PM 45.9333 -58.8333 244° Southwest 480 552 36,000  Level Gander Center
Fri 12:17:10 PM 45.8833 -58.9833 244° Southwest 470 541 36,000  Level Gander Center
Fri 12:18:10 PM 45.8167 -59.1833 254° West 470 541 36,000  Level Gander Center
Fri 12:19:10 PM 45.7833 -59.3500 247° West 470 541 36,000  Level Gander Center
Fri 12:20:10 PM 45.7333 -59.5167 247° West 470 541 36,000  Level Gander Center
Fri 12:21:10 PM 45.6833 -59.6833 240° Southwest 460 529 36,000  Level Gander Center
Fri 12:22:10 PM 45.6167 -59.8500 247° West 460 529 36,000  Level Gander Center
Fri 12:23:10 PM 45.5667 -60.0167 245° Southwest 450 518 36,000  Level Gander Center
Fri 12:24:10 PM 45.5167 -60.1667 247° West 450 518 36,000  Level Gander Center
Fri 12:25:10 PM 45.4667 -60.3333 247° West 440 506 36,000  Level Gander Center
Fri 12:26:10 PM 45.4167 -60.5000 254° West 440 506 36,000  Level Gander Center
Fri 12:27:10 PM 45.3833 -60.6667 242° Southwest 440 506 36,000  Level Gander Center
Fri 12:28:10 PM 45.3333 -60.8000 245° Southwest 430 495 36,000  Level Gander Center
Fri 12:29:10 PM 45.2833 -60.9500 247° West 430 495 36,000  Level Gander Center
Fri 12:30:10 PM 45.2333 -61.1167 245° Southwest 430 495 36,000  Level Gander Center
Fri 12:31:10 PM 45.1833 -61.2667 245° Southwest 430 495 36,000  Level Gander Center
Fri 12:32:10 PM 45.1333 -61.4167 245° Southwest 420 483 36,000  Level Moncton Center
Fri 12:33:10 PM 45.0833 -61.5667 245° Southwest 420 483 36,000  Level Gander Center
Fri 12:34:10 PM 45.0333 -61.7167 247° West 420 483 36,000  Level Moncton Center
Fri 12:35:10 PM 44.9833 -61.8833 242° Southwest 420 483 36,000  Level Moncton Center
Fri 12:36:10 PM 44.9333 -62.0167 247° West 420 483 36,000  Level Moncton Center
Fri 12:37:10 PM 44.8833 -62.1833 242° Southwest 410 472 36,000  Level Gander Center
Fri 12:38:10 PM 44.8333 -62.3167 242° Southwest 410 472 36,000  Level Gander Center
Fri 12:39:10 PM 44.7833 -62.4500 245° Southwest 410 472 36,000  Level Gander Center
Fri 12:40:10 PM 44.7333 -62.6000 247° West 410 472 36,000  Level Gander Center
Fri 12:41:10 PM 44.6833 -62.7667 251° West 410 472 36,000  Level Gander Center
Fri 12:42:10 PM 44.6500 -62.9000 242° Southwest 400 460 36,000  Level Gander Center
Fri 12:43:10 PM 44.6000 -63.0333 245° Southwest 400 460 36,000  Level Gander Center
Fri 12:44:10 PM 44.5500 -63.1833 235° Southwest 400 460 36,000  Level Gander Center
Fri 12:45:10 PM 44.4833 -63.3167 251° West 400 460 36,000  Level Gander Center
Fri 12:46:10 PM 44.4500 -63.4500 242° Southwest 400 460 36,000  Level Gander Center
Fri 12:47:10 PM 44.4000 -63.5833 247° West 400 460 36,000  Level Gander Center
Fri 12:48:10 PM 44.3500 -63.7500 239° Southwest 400 460 36,000  Level Gander Center
Fri 12:49:10 PM 44.3000 -63.8667 247° West 400 460 36,000  Level Gander Center
Fri 12:50:10 PM 44.2500 -64.0333 242° Southwest 400 460 36,000  Level Gander Center
Fri 12:51:10 PM 44.2000 -64.1667 242° Southwest 400 460 36,000  Level Gander Center
Fri 12:52:10 PM 44.1500 -64.3000 242° Southwest 400 460 36,000  Level Gander Center
Fri 12:53:10 PM 44.1000 -64.4333 242° Southwest 400 460 36,000  Level Gander Center
Fri 12:54:10 PM 44.0500 -64.5667 245° Southwest 400 460 36,000  Level Gander Center
Fri 12:55:10 PM 44.0000 -64.7167 245° Southwest 400 460 36,000  Level Moncton Center
Fri 12:56:10 PM 43.9500 -64.8667 243° Southwest 400 460 36,000  Level Moncton Center
Fri 12:57:10 PM 43.9000 -65.0000 243° Southwest 400 460 36,000  Level Moncton Center
Fri 12:58:10 PM 43.8500 -65.1333 245° Southwest 400 460 36,000  Level Moncton Center
Fri 12:59:10 PM 43.8000 -65.2833 243° Southwest 400 460 36,000  Level Moncton Center
Fri 01:00:10 PM 43.7500 -65.4167 243° Southwest 410 472 36,000  Level Moncton Center
Fri 01:01:10 PM 43.7000 -65.5500 243° Southwest 410 472 36,000  Level Moncton Center
Fri 01:02:10 PM 43.6500 -65.6833 245° Southwest 410 472 36,000  Level Moncton Center
Fri 01:03:10 PM 43.6000 -65.8333 235° Southwest 410 472 36,000  Level Moncton Center
Fri 01:04:10 PM 43.5333 -65.9667 243° Southwest 410 472 36,000  Level Moncton Center
Fri 01:05:10 PM 43.4833 -66.1000 243° Southwest 410 472 36,000  Level Moncton Center
Fri 01:06:10 PM 43.4333 -66.2333 243° Southwest 410 472 36,000  Level Moncton Center
Fri 01:07:10 PM 43.3833 -66.3667 241° Southwest 410 472 36,000  Level Moncton Center
Fri 01:08:10 PM 43.3167 -66.5333 243° Southwest 410 472 36,000  Level Moncton Center
Fri 01:09:10 PM 43.2667 -66.6667 236° Southwest 410 472 36,000  Level Moncton Center
Fri 01:10:10 PM 43.2000 -66.8000 243° Southwest 410 472 36,000  Level Moncton Center
Fri 01:11:10 PM 43.1500 -66.9333 248° West 410 472 36,000  Level Moncton Center
Fri 01:12:10 PM 43.1000 -67.1000 249° West 410 472 36,000  Level Moncton Center
Fri 01:13:10 PM 43.0667 -67.2167 246° West 410 472 36,000  Level Moncton Center
Fri 01:14:10 PM 43.0167 -67.3667 255° West 410 472 36,000  Level Moncton Center
Fri 01:15:28 PM 42.9775 -67.5608 240° Southwest 410 472 36,000  Level Boston Center
Fri 01:16:10 PM 42.9333 -67.6667 246° West 420 483 36,000  Level Moncton Center
Fri 01:17:10 PM 42.8833 -67.8167 251° West 420 483 36,000  Level Moncton Center
Fri 01:18:10 PM 42.8500 -67.9500 246° West 420 483 36,000  Level Moncton Center
Fri 01:19:10 PM 42.8000 -68.1000 243° Southwest 410 472 36,000  Level Moncton Center
Fri 01:20:10 PM 42.7500 -68.2333 251° West 420 483 36,000  Level Moncton Center
Fri 01:21:10 PM 42.7167 -68.3667 243° Southwest 410 472 36,000  Level Moncton Center
Fri 01:22:10 PM 42.6667 -68.5000 248° West 410 472 36,000  Level Moncton Center
Fri 01:23:10 PM 42.6167 -68.6667 251° West 410 472 36,000  Level Moncton Center
Fri 01:24:10 PM 42.5833 -68.8000 236° Southwest 420 483 36,000  Level Moncton Center
Fri 01:25:10 PM 42.5167 -68.9333 253° West 410 472 36,000  Level Moncton Center
Fri 01:26:10 PM 42.4833 -69.0833 243° Southwest 410 472 36,000  Level Moncton Center
Fri 01:27:10 PM 42.4333 -69.2167 254° West 410 472 36,000  Level Moncton Center
Fri 01:28:28 PM 42.3933 -69.4094 245° Southwest 410 472 36,000  Level Boston Center
Fri 01:29:28 PM 42.3428 -69.5550 230° Southwest 415 478 36,000  Level Boston Center
Fri 01:30:10 PM 42.2833 -69.6500 251° West 420 483 36,000  Level Moncton Center
Fri 01:31:10 PM 42.2500 -69.7833 239° Southwest 420 483 36,000  Level Moncton Center
Fri 01:32:10 PM 42.1833 -69.9333 251° West 420 483 36,000  Level Moncton Center
Fri 01:33:10 PM 42.1500 -70.0667 246° West 420 483 36,000  Level Moncton Center
Fri 01:34:10 PM 42.1000 -70.2167 248° West 420 483 36,000  Level Moncton Center
Fri 01:35:10 PM 42.0500 -70.3833 240° Southwest 420 483 36,000  Level Moncton Center
Fri 01:36:10 PM 42.0000 -70.5000 239° Southwest 420 483 36,000 -500 Level Moncton Center
Fri 01:37:10 PM 41.9333 -70.6500 236° Southwest 430 495 35,000 -750 Descending Moncton Center
Fri 01:38:10 PM 41.8667 -70.7833 236° Southwest 430 495 34,500 -550 Descending Moncton Center
Fri 01:39:10 PM 41.8000 -70.9167 239° Southwest 430 495 33,900 -700 Descending Moncton Center
Fri 01:40:10 PM 41.7333 -71.0667 237° Southwest 430 495 33,100 -783 Descending Moncton Center
Fri 01:41:28 PM 41.6561 -71.2231 235° Southwest 449 517 32,100 -739 Descending Boston Center
Fri 01:42:28 PM 41.5844 -71.3578 236° Southwest 449 517 31,400 -650 Descending Boston Center
Fri 01:43:28 PM 41.5169 -71.4919 234° Southwest 449 517 30,800 -1,100 Descending Boston Center
Fri 01:44:28 PM 41.4408 -71.6317 234° Southwest 440 506 29,200 -1,950 Descending Boston Center
Fri 01:45:28 PM 41.3708 -71.7597 234° Southwest 429 494 26,900 -2,300 Descending Boston Center
Fri 01:46:28 PM 41.3028 -71.8847 224° Southwest 429 494 24,600 -1,450 Descending Boston Center
Fri 01:47:28 PM 41.2386 -71.9681 220° Southwest 424 488 24,000 -1,000 Descending Boston Center
Fri 01:48:28 PM 41.1328 -72.0847 239° Southwest 414 476 22,600 -1,750 Descending Boston Center
Fri 01:49:28 PM 41.0789 -72.2033 250° West 388 447 20,500 -2,100 Descending Boston Center
Fri 01:50:28 PM 41.0436 -72.3328 253° West 388 447 18,400 -2,150 Descending Boston Center
Fri 01:51:28 PM 41.0144 -72.4594 253° West 376 433 16,200 -2,150 Descending Boston Center
Fri 01:52:28 PM 40.9853 -72.5831 243° Southwest 371 427 14,100 -1,211 Descending Boston Center
Fri 01:55:01 PM 40.8833 -72.8500 210° Southwest 293 337 11,900 -925 Descending New York TRACON
Fri 01:56:02 PM 40.8167 -72.9000 225° Southwest 286 329 10,800 -1,000 Descending New York TRACON
Fri 01:57:01 PM 40.7667 -72.9667 210° Southwest 275 316 9,900 -900 Descending New York TRACON
Fri 01:58:02 PM 40.7000 -73.0167 258° West 279 321 9,000 -1,050 Descending New York TRACON
Fri 01:59:01 PM 40.6833 -73.1167 255° West 252 290 7,800 -1,261 Descending New York TRACON
Fri 02:00:01 PM 40.6667 -73.2000 255° West 249 287 6,500 -1,289 Descending New York TRACON
Fri 02:01:02 PM 40.6500 -73.2833 225° Southwest 258 297 5,200 -1,250 Descending New York TRACON
Fri 02:02:01 PM 40.6000 -73.3500 217° Southwest 257 296 4,000 -605 Descending New York TRACON
Fri 02:03:01 PM 40.5500 -73.4000 258° West 225 259 4,000  Level New York TRACON
Fri 02:05:01 PM 40.5333 -73.5000 288° West 185 213 4,000 -133 Level New York TRACON
Fri 02:06:02 PM 40.5500 -73.5667 311° West 187 215 3,600 -645 Descending New York TRACON
Fri 02:07:02 PM 40.5833 -73.6167 303° West 151 174 2,700 -850 Descending New York TRACON
Fri 02:08:02 PM 40.6000 -73.6500 294° West 136 157 1,900 -750 Descending New York TRACON
Fri 02:09:02 PM 40.6167 -73.7000 294° West 141 162 1,200 -700 Descending New York TRACON

Login

Don't have an account? Register now (free) for customized features, flight alerts, and more!